createdAt,value
2023-03-25T00:00:37.834Z,50.875256
2023-03-25T00:01:38.845Z,50.875256
2023-03-25T02:09:54.238Z,50.875389
2023-03-25T02:10:54.280Z,50.875362
2023-03-25T02:11:54.202Z,50.875484
2023-03-25T02:12:54.212Z,50.875568
2023-03-25T02:13:54.213Z,50.875553
2023-03-25T02:14:54.190Z,50.875427
2023-03-25T02:15:54.174Z,50.875450
2023-03-25T02:16:54.172Z,50.875465
2023-03-25T02:17:54.214Z,50.875359
2023-03-25T02:18:54.139Z,50.875423
2023-03-25T02:19:54.145Z,50.875336
2023-03-25T02:20:54.140Z,50.875271
2023-03-25T02:21:54.130Z,50.875389
2023-03-25T02:22:54.132Z,50.875629
2023-03-25T02:23:54.109Z,50.875774
2023-03-25T02:24:54.191Z,50.875526
2023-03-25T02:25:54.095Z,50.875381
2023-03-25T02:26:54.097Z,50.875389
2023-03-25T02:27:54.092Z,50.875290
2023-03-25T02:28:54.046Z,50.875397
2023-03-25T02:29:54.107Z,50.875473
2023-03-25T02:30:54.058Z,50.875473
2023-03-25T02:31:54.036Z,50.875473
2023-03-25T02:32:54.066Z,50.875473
2023-03-25T02:33:53.985Z,50.875473
2023-03-25T02:34:53.985Z,50.875473
2023-03-25T02:35:54.107Z,50.875473
2023-03-25T02:36:53.954Z,50.875473
2023-03-25T02:37:53.952Z,50.875473
2023-03-25T02:38:53.968Z,50.875473
2023-03-25T02:39:53.947Z,50.875473
2023-03-25T02:40:53.930Z,50.875473
2023-03-25T02:41:53.916Z,50.875473
2023-03-25T02:42:53.915Z,50.875473
2023-03-25T02:43:53.911Z,50.875473
2023-03-25T02:44:53.900Z,50.875473
2023-03-25T02:45:54.337Z,50.875473
2023-03-25T02:46:53.873Z,50.875473
2023-03-25T02:47:53.866Z,50.875473
2023-03-25T02:48:53.846Z,50.875473
2023-03-25T02:49:53.836Z,50.875473
2023-03-25T02:50:53.824Z,50.875473
2023-03-25T02:53:24.556Z,50.875473
2023-03-25T02:54:24.503Z,50.875473
2023-03-25T02:55:24.519Z,50.875473
2023-03-25T02:56:24.487Z,50.875473
2023-03-25T02:57:24.492Z,50.875473
2023-03-25T02:58:24.491Z,50.875473
2023-03-25T02:59:24.462Z,50.875473
2023-03-25T03:00:24.469Z,50.875473
2023-03-25T03:01:24.473Z,50.875473
2023-03-25T03:02:24.502Z,50.875473
2023-03-25T03:03:24.467Z,50.875473
2023-03-25T03:04:24.394Z,50.875473
2023-03-25T03:05:24.404Z,50.875473
2023-03-25T03:06:24.380Z,50.875473
2023-03-25T03:07:24.370Z,50.875473
2023-03-25T03:08:24.394Z,50.875473
2023-03-25T03:09:24.340Z,50.875473
2023-03-25T03:10:24.321Z,50.875473
2023-03-25T03:11:24.333Z,50.875473
2023-03-25T03:12:24.334Z,50.875473
2023-03-25T03:13:24.318Z,50.875473
2023-03-25T03:14:24.289Z,50.875473
2023-03-25T03:15:24.289Z,50.875473
2023-03-25T03:16:24.317Z,50.875473
2023-03-25T03:17:24.308Z,50.875473
2023-03-25T03:18:24.360Z,50.875473
2023-03-25T03:19:24.364Z,50.875473
2023-03-25T03:20:24.238Z,50.875473
2023-03-25T03:21:24.215Z,50.875473
2023-03-25T03:22:24.220Z,50.875473
2023-03-25T03:23:24.244Z,50.875473
2023-03-25T03:24:24.201Z,50.875473
2023-03-25T03:25:24.216Z,50.875473
2023-03-25T03:26:24.197Z,50.875496
2023-03-25T03:27:24.183Z,50.875355
2023-03-25T03:28:24.194Z,50.875473
2023-03-25T03:29:24.154Z,50.875420
2023-03-25T03:30:24.144Z,50.875435
2023-03-25T03:31:48.748Z,50.875423
2023-03-25T03:32:25.194Z,50.875290
2023-03-25T03:33:24.106Z,50.875069
2023-03-25T03:34:24.131Z,50.875065
2023-03-25T03:35:24.105Z,50.874924
2023-03-25T03:36:24.082Z,50.875240
2023-03-25T03:37:24.071Z,50.875240
2023-03-25T03:38:24.095Z,50.875240
2023-03-25T03:39:24.068Z,50.875240
2023-03-25T03:40:24.039Z,50.875240
2023-03-25T03:41:24.042Z,50.875240
2023-03-25T03:42:24.020Z,50.875240
2023-03-25T03:43:24.002Z,50.875240
2023-03-25T03:44:24.010Z,50.876015
2023-03-25T03:45:23.983Z,50.875874
2023-03-25T03:46:24.036Z,50.875385
2023-03-25T03:47:23.986Z,50.875305
2023-03-25T03:48:23.940Z,50.875267
2023-03-25T03:49:23.953Z,50.875294
2023-03-25T03:50:23.950Z,50.875313
2023-03-25T03:51:23.922Z,50.875153
2023-03-25T03:52:23.910Z,50.875252
2023-03-25T03:53:23.910Z,50.875317
2023-03-25T03:54:23.913Z,50.875366
2023-03-25T03:55:23.871Z,50.875267
2023-03-25T03:56:23.860Z,50.875328
2023-03-25T03:57:23.860Z,50.875149
2023-03-25T03:58:23.859Z,50.875313
2023-03-25T03:59:23.871Z,50.875401
2023-03-25T04:00:23.834Z,50.875496
2023-03-25T04:01:23.828Z,50.875477
2023-03-25T04:02:23.901Z,50.875481
2023-03-25T04:03:23.921Z,50.875408
2023-03-25T04:04:23.888Z,50.875278
2023-03-25T04:05:23.777Z,50.875278
2023-03-25T04:06:23.769Z,50.875114
2023-03-25T04:07:23.791Z,50.875172
2023-03-25T04:08:23.749Z,50.875229
2023-03-25T04:09:23.765Z,50.875244
2023-03-25T04:10:23.810Z,50.875698
2023-03-25T04:11:23.730Z,50.875576
2023-03-25T04:12:23.767Z,50.875404
2023-03-25T04:13:23.768Z,50.875153
2023-03-25T04:14:23.728Z,50.875301
2023-03-25T04:15:23.671Z,50.875389
2023-03-25T04:16:23.778Z,50.875175
2023-03-25T04:17:23.662Z,50.875389
2023-03-25T04:18:23.658Z,50.875305
2023-03-25T04:19:23.660Z,50.875328
2023-03-25T04:20:23.852Z,50.875233
2023-03-25T04:21:23.621Z,50.875240
2023-03-25T04:22:23.589Z,50.875137
2023-03-25T04:23:23.621Z,50.875137
2023-03-25T04:24:23.595Z,50.875340
2023-03-25T04:25:23.605Z,50.875183
2023-03-25T04:26:23.562Z,50.874985
2023-03-25T04:27:23.594Z,50.875225
2023-03-25T04:28:23.535Z,50.875175
2023-03-25T04:29:23.530Z,50.875374
2023-03-25T04:30:23.511Z,50.875267
2023-03-25T04:31:23.546Z,50.875336
2023-03-25T04:32:23.539Z,50.875454
2023-03-25T04:33:23.517Z,50.875568
2023-03-25T04:34:23.481Z,50.875511
2023-03-25T04:35:23.477Z,50.875359
2023-03-25T04:36:23.471Z,50.875290
2023-03-25T04:37:23.458Z,50.875183
2023-03-25T04:38:23.452Z,50.875065
2023-03-25T04:39:23.460Z,50.875420
2023-03-25T04:40:23.392Z,50.875160
2023-03-25T04:41:23.427Z,50.874729
2023-03-25T04:42:23.391Z,50.875061
2023-03-25T04:43:23.403Z,50.875156
2023-03-25T04:44:23.380Z,50.875412
2023-03-25T04:45:23.380Z,50.875542
2023-03-25T04:46:23.401Z,50.875572
2023-03-25T04:47:23.342Z,50.875381
2023-03-25T04:48:23.364Z,50.875465
2023-03-25T04:49:23.343Z,50.875389
2023-03-25T04:50:23.338Z,50.875412
2023-03-25T04:51:23.353Z,50.875202
2023-03-25T04:52:23.316Z,50.875404
2023-03-25T04:53:23.303Z,50.875763
2023-03-25T04:54:23.322Z,50.875614
2023-03-25T04:55:23.264Z,50.875671
2023-03-25T04:56:23.287Z,50.875511
2023-03-25T04:57:23.254Z,50.875504
2023-03-25T04:58:23.234Z,50.875568
2023-03-25T04:59:23.229Z,50.875591
2023-03-25T05:00:24.429Z,50.875462
2023-03-25T05:01:23.260Z,50.875420
2023-03-25T05:02:23.193Z,50.875484
2023-03-25T05:03:23.197Z,50.875385
2023-03-25T05:04:23.280Z,50.875397
2023-03-25T05:05:23.182Z,50.875454
2023-03-25T05:06:25.398Z,50.875389
2023-03-25T05:07:23.134Z,50.875031
2023-03-25T05:08:23.146Z,50.875122
2023-03-25T05:09:23.136Z,50.875244
2023-03-25T05:10:23.130Z,50.875122
2023-03-25T05:11:23.125Z,50.875076
2023-03-25T05:12:23.095Z,50.875076
2023-03-25T05:13:23.082Z,50.875076
2023-03-25T05:14:23.083Z,50.875168
2023-03-25T05:15:23.045Z,50.875244
2023-03-25T05:16:23.068Z,50.875015
2023-03-25T05:17:23.071Z,50.876064
2023-03-25T05:18:23.043Z,50.875839
2023-03-25T05:19:23.007Z,50.875416
2023-03-25T05:20:23.015Z,50.875298
2023-03-25T05:21:22.988Z,50.875633
2023-03-25T05:22:23.002Z,50.876175
2023-03-25T05:23:22.981Z,50.876198
2023-03-25T05:24:22.961Z,50.876198
2023-03-25T05:25:22.958Z,50.876049
2023-03-25T05:26:22.943Z,50.875484
2023-03-25T05:27:22.931Z,50.875484
2023-03-25T05:28:22.934Z,50.875484
2023-03-25T05:29:22.893Z,50.876003
2023-03-25T05:30:22.923Z,50.876003
2023-03-25T05:31:22.931Z,50.875523
2023-03-25T05:32:22.872Z,50.875912
2023-03-25T05:33:22.862Z,50.875805
2023-03-25T05:34:22.872Z,50.875652
2023-03-25T05:35:22.876Z,50.875580
2023-03-25T05:36:22.872Z,50.875477
2023-03-25T05:37:22.812Z,50.875477
2023-03-25T05:38:22.822Z,50.875477
2023-03-25T05:39:22.812Z,50.875477
2023-03-25T05:40:22.802Z,50.875477
2023-03-25T05:41:22.818Z,50.875618
2023-03-25T05:42:22.779Z,50.875465
2023-03-25T05:43:22.827Z,50.875439
2023-03-25T05:44:22.757Z,50.875328
2023-03-25T05:45:22.779Z,50.874908
2023-03-25T05:46:22.781Z,50.874908
2023-03-25T05:47:22.750Z,50.874908
2023-03-25T05:48:22.731Z,50.874908
2023-03-25T05:49:22.711Z,50.874908
2023-03-25T05:50:22.703Z,50.875336
2023-03-25T05:51:22.713Z,50.875183
2023-03-25T05:52:22.650Z,50.875336
2023-03-25T05:53:22.686Z,50.875336
2023-03-25T05:54:22.641Z,50.875427
2023-03-25T05:55:22.665Z,50.875271
2023-03-25T05:56:22.627Z,50.875271
2023-03-25T05:57:22.609Z,50.875271
2023-03-25T05:58:22.594Z,50.875271
2023-03-25T05:59:22.596Z,50.875271
2023-03-25T06:00:23.595Z,50.875271
2023-03-25T06:01:32.759Z,50.875271
2023-03-25T06:02:24.598Z,50.875271
2023-03-25T06:03:22.589Z,50.875271
2023-03-25T06:04:22.588Z,50.875271
2023-03-25T06:05:22.552Z,50.875271
2023-03-25T06:06:22.531Z,50.875271
2023-03-25T06:07:22.553Z,50.875271
2023-03-25T06:08:22.514Z,50.875271
2023-03-25T06:09:22.501Z,50.875271
2023-03-25T06:10:22.529Z,50.875271
2023-03-25T06:11:22.480Z,50.875271
2023-03-25T06:12:22.485Z,50.875271
2023-03-25T06:13:22.483Z,50.875271
2023-03-25T06:14:22.459Z,50.875271
2023-03-25T06:15:22.461Z,50.875271
2023-03-25T06:16:22.531Z,50.875271
2023-03-25T06:17:22.413Z,50.875271
2023-03-25T06:18:22.436Z,50.875271
2023-03-25T06:19:22.393Z,50.875271
2023-03-25T06:20:22.383Z,50.875271
2023-03-25T06:21:22.386Z,50.875271
2023-03-25T06:22:22.472Z,50.875271
2023-03-25T06:23:22.341Z,50.875271
2023-03-25T06:24:22.360Z,50.875271
2023-03-25T06:25:22.331Z,50.875271
2023-03-25T06:26:22.328Z,50.875271
2023-03-25T06:27:22.320Z,50.875271
2023-03-25T06:28:22.288Z,50.875271
2023-03-25T06:29:22.306Z,50.875271
2023-03-25T06:30:22.277Z,50.875271
2023-03-25T06:31:22.323Z,50.875271
2023-03-25T06:32:22.375Z,50.875271
2023-03-25T06:33:42.353Z,50.875271
2023-03-25T06:34:23.729Z,50.875271
2023-03-25T06:35:22.238Z,50.875271
2023-03-25T06:36:22.266Z,50.875271
2023-03-25T06:37:22.211Z,50.875271
2023-03-25T06:38:22.184Z,50.875271
2023-03-25T06:39:22.187Z,50.875271
2023-03-25T06:40:22.168Z,50.875271
2023-03-25T06:41:22.170Z,50.875271
2023-03-25T06:42:22.169Z,50.875271
2023-03-25T06:43:22.131Z,50.875271
2023-03-25T06:44:24.502Z,50.875271
2023-03-25T06:45:22.130Z,50.875271
2023-03-25T06:46:22.184Z,50.875271
2023-03-25T06:47:22.107Z,50.875271
2023-03-25T06:48:22.087Z,50.875271
2023-03-25T06:49:22.065Z,50.875271
2023-03-25T06:50:22.080Z,50.875271
2023-03-25T06:51:22.132Z,50.875271
2023-03-25T06:52:22.052Z,50.875271
2023-03-25T06:53:22.066Z,50.875271
2023-03-25T06:54:22.025Z,50.875271
2023-03-25T06:55:22.008Z,50.875271
2023-03-25T06:56:22.117Z,50.875271
2023-03-25T06:57:22.018Z,50.875271
2023-03-25T06:58:21.974Z,50.875271
2023-03-25T06:59:21.969Z,50.875271
2023-03-25T07:00:21.966Z,50.875271
2023-03-25T07:01:21.974Z,50.875271
2023-03-25T07:02:21.935Z,50.875271
2023-03-25T07:03:21.935Z,50.875271
2023-03-25T07:04:21.904Z,50.875271
2023-03-25T07:05:21.924Z,50.875271
2023-03-25T07:06:21.906Z,50.875271
2023-03-25T07:07:21.870Z,50.875271
2023-03-25T07:08:21.881Z,50.875271
2023-03-25T07:09:21.868Z,50.875271
2023-03-25T07:10:21.855Z,50.875271
2023-03-25T07:11:21.838Z,50.875271
2023-03-25T07:12:21.816Z,50.875271
2023-03-25T07:13:21.889Z,50.875271
2023-03-25T07:14:21.799Z,50.875271
2023-03-25T07:15:21.794Z,50.875271
2023-03-25T07:16:21.918Z,50.875271
2023-03-25T07:17:21.757Z,50.875271
2023-03-25T07:18:21.743Z,50.875271
2023-03-25T07:19:22.097Z,50.875271
2023-03-25T07:20:21.751Z,50.875271
2023-03-25T07:21:21.724Z,50.875271
2023-03-25T07:22:21.712Z,50.875271
2023-03-25T07:23:21.708Z,50.875271
2023-03-25T07:24:21.707Z,50.875271
2023-03-25T07:25:21.664Z,50.875271
2023-03-25T07:26:21.682Z,50.875271
2023-03-25T07:27:21.665Z,50.875271
2023-03-25T07:28:21.658Z,50.875271
2023-03-25T07:29:21.629Z,50.875271
2023-03-25T07:30:21.651Z,50.875271
2023-03-25T07:31:21.652Z,50.875271
2023-03-25T07:32:21.636Z,50.875271
2023-03-25T07:33:21.586Z,50.875271
2023-03-25T07:34:21.571Z,50.875271
2023-03-25T07:35:21.581Z,50.875271
2023-03-25T07:36:21.570Z,50.875271
2023-03-25T07:37:21.556Z,50.875271
2023-03-25T07:38:21.532Z,50.875271
2023-03-25T07:39:21.531Z,50.875271
2023-03-25T07:40:21.539Z,50.875271
2023-03-25T07:41:21.517Z,50.875271
2023-03-25T07:42:21.500Z,50.875271
2023-03-25T07:43:21.487Z,50.875271
2023-03-25T07:44:21.513Z,50.875271
2023-03-25T07:45:21.493Z,50.875271
2023-03-25T07:46:21.610Z,50.875271
2023-03-25T07:47:21.431Z,50.875271
2023-03-25T07:48:21.429Z,50.875271
2023-03-25T07:49:21.417Z,50.875271
2023-03-25T07:50:23.133Z,50.875271
2023-03-25T07:51:21.409Z,50.875271
2023-03-25T07:52:21.403Z,50.875271
2023-03-25T07:53:21.379Z,50.875271
2023-03-25T07:54:21.373Z,50.875271
2023-03-25T07:55:21.352Z,50.875271
2023-03-25T07:56:21.346Z,50.875271
2023-03-25T07:57:21.346Z,50.875271
2023-03-25T07:58:21.320Z,50.875271
2023-03-25T07:59:21.311Z,50.875271
2023-03-25T08:00:21.320Z,50.875271
2023-03-25T08:01:21.287Z,50.875271
2023-03-25T08:02:21.395Z,50.875271
2023-03-25T08:03:21.384Z,50.875271
2023-03-25T08:04:21.297Z,50.875271
2023-03-25T08:05:21.249Z,50.875271
2023-03-25T08:06:21.234Z,50.875271
2023-03-25T08:07:21.240Z,50.875271
2023-03-25T08:08:21.219Z,50.875271
2023-03-25T08:09:21.203Z,50.875271
2023-03-25T08:10:21.211Z,50.875271
2023-03-25T08:11:21.200Z,50.875271
2023-03-25T08:12:21.188Z,50.875271
2023-03-25T08:13:21.159Z,50.875271
2023-03-25T08:14:21.787Z,50.875271
2023-03-25T08:15:21.180Z,50.875366
2023-03-25T08:16:21.213Z,50.875397
2023-03-25T08:17:21.131Z,50.876122
2023-03-25T08:18:21.100Z,50.875416
2023-03-25T08:19:21.130Z,50.875462
2023-03-25T08:20:21.085Z,50.875351
2023-03-25T08:21:21.073Z,50.875290
2023-03-25T08:22:21.080Z,50.875294
2023-03-25T08:23:21.051Z,50.875477
2023-03-25T08:24:21.075Z,50.875156
2023-03-25T08:25:21.037Z,50.875301
2023-03-25T08:26:21.020Z,50.875195
2023-03-25T08:27:21.026Z,50.875526
2023-03-25T08:28:24.856Z,50.875168
2023-03-25T08:29:21.017Z,50.875206
2023-03-25T08:30:21.032Z,50.875271
2023-03-25T08:31:21.034Z,50.875275
2023-03-25T08:32:27.416Z,50.875256
2023-03-25T08:33:20.984Z,50.875252
2023-03-25T08:34:23.776Z,50.875374
2023-03-25T08:35:23.989Z,50.875469
2023-03-25T08:36:21.014Z,50.875469
2023-03-25T08:37:20.956Z,50.875435
2023-03-25T08:38:20.957Z,50.875393
2023-03-25T08:39:20.933Z,50.875340
2023-03-25T08:40:20.961Z,50.875381
2023-03-25T08:41:20.897Z,50.875458
2023-03-25T08:42:20.908Z,50.875439
2023-03-25T08:43:20.877Z,50.875378
2023-03-25T08:44:20.847Z,50.875526
2023-03-25T08:45:20.873Z,50.875500
2023-03-25T08:46:20.900Z,50.875278
2023-03-25T08:47:20.858Z,50.875244
2023-03-25T08:48:20.839Z,50.874641
2023-03-25T08:49:20.806Z,50.874790
2023-03-25T08:50:20.803Z,50.874756
2023-03-25T08:51:20.787Z,50.870296
2023-03-25T08:52:20.794Z,50.870296
2023-03-25T08:53:21.758Z,50.870296
2023-03-25T08:54:20.772Z,50.870296
2023-03-25T08:55:20.747Z,50.875801
2023-03-25T08:56:20.738Z,50.875450
2023-03-25T08:57:20.725Z,50.875504
2023-03-25T08:58:20.748Z,50.875523
2023-03-25T08:59:20.705Z,50.875412
2023-03-25T09:00:20.705Z,50.875362
2023-03-25T09:01:20.726Z,50.875370
2023-03-25T09:02:20.704Z,50.875393
2023-03-25T09:03:20.648Z,50.875435
2023-03-25T09:04:20.654Z,50.875381
2023-03-25T09:05:20.678Z,50.875355
2023-03-25T09:06:20.627Z,50.875389
2023-03-25T09:07:20.628Z,50.875416
2023-03-25T09:08:20.604Z,50.875420
2023-03-25T09:09:20.587Z,50.875263
2023-03-25T09:10:20.564Z,50.875340
2023-03-25T09:11:34.174Z,50.875374
2023-03-25T09:12:22.561Z,50.875393
2023-03-25T09:13:20.555Z,50.875336
2023-03-25T09:14:20.528Z,50.875481
2023-03-25T09:15:20.526Z,50.875324
2023-03-25T09:16:20.546Z,50.875313
2023-03-25T09:17:20.510Z,50.875175
2023-03-25T09:18:20.494Z,50.875355
2023-03-25T09:19:20.488Z,50.875301
2023-03-25T09:20:20.469Z,50.875244
2023-03-25T09:21:20.471Z,50.875248
2023-03-25T09:22:20.461Z,50.875443
2023-03-25T09:23:20.439Z,50.875370
2023-03-25T09:24:20.428Z,50.875355
2023-03-25T09:25:20.422Z,50.875374
2023-03-25T09:26:20.410Z,50.875389
2023-03-25T09:27:20.413Z,50.875381
2023-03-25T09:28:20.393Z,50.875370
2023-03-25T09:29:20.379Z,50.875355
2023-03-25T09:30:20.367Z,50.875347
2023-03-25T09:31:20.392Z,50.875317
2023-03-25T09:32:20.372Z,50.875393
2023-03-25T09:33:20.335Z,50.875347
2023-03-25T09:34:20.326Z,50.875347
2023-03-25T09:35:20.345Z,50.875298
2023-03-25T09:36:20.307Z,50.875355
2023-03-25T09:37:20.310Z,50.875359
2023-03-25T09:38:20.284Z,50.875454
2023-03-25T09:39:20.268Z,50.875347
2023-03-25T09:40:20.276Z,50.875324
2023-03-25T09:41:20.262Z,50.875359
2023-03-25T09:42:20.245Z,50.875366
2023-03-25T09:43:20.253Z,50.875381
2023-03-25T09:44:20.213Z,50.875263
2023-03-25T09:45:20.209Z,50.875290
2023-03-25T09:46:20.248Z,50.875397
2023-03-25T09:47:20.182Z,50.875496
2023-03-25T09:48:20.194Z,50.875362
2023-03-25T09:49:20.164Z,50.875401
2023-03-25T09:50:20.155Z,50.875347
2023-03-25T09:51:20.145Z,50.875347
2023-03-25T09:52:20.185Z,50.875301
2023-03-25T09:53:20.139Z,50.875298
2023-03-25T09:54:20.117Z,50.875214
2023-03-25T09:55:20.117Z,50.875397
2023-03-25T09:56:20.093Z,50.875393
2023-03-25T09:57:20.114Z,50.875404
2023-03-25T09:58:20.084Z,50.875393
2023-03-25T09:59:20.073Z,50.875301
2023-03-25T10:00:20.055Z,50.875366
2023-03-25T10:01:20.068Z,50.875450
2023-03-25T10:02:21.087Z,50.875431
2023-03-25T10:03:20.079Z,50.875362
2023-03-25T10:04:20.018Z,50.875317
2023-03-25T10:05:20.010Z,50.875328
2023-03-25T10:06:19.996Z,50.875343
2023-03-25T10:07:19.990Z,50.875305
2023-03-25T10:08:19.998Z,50.875347
2023-03-25T10:09:19.975Z,50.875366
2023-03-25T10:10:19.978Z,50.875298
2023-03-25T10:11:19.951Z,50.875340
2023-03-25T10:12:19.943Z,50.875378
2023-03-25T10:13:20.199Z,50.875370
2023-03-25T10:14:20.928Z,50.875340
2023-03-25T10:15:19.931Z,50.875397
2023-03-25T10:16:19.965Z,50.875427
2023-03-25T10:17:19.902Z,50.875427
2023-03-25T10:18:19.894Z,50.875389
2023-03-25T10:19:19.908Z,50.875362
2023-03-25T10:20:19.895Z,50.875366
2023-03-25T10:21:19.888Z,50.875446
2023-03-25T10:22:19.917Z,50.875385
2023-03-25T10:23:19.858Z,50.875298
2023-03-25T10:24:19.837Z,50.875324
2023-03-25T10:25:19.864Z,50.875355
2023-03-25T10:26:19.900Z,50.875275
2023-03-25T10:27:19.830Z,50.875298
2023-03-25T10:28:19.816Z,50.875313
2023-03-25T10:29:19.794Z,50.875336
2023-03-25T10:30:19.798Z,50.875240
2023-03-25T10:31:19.802Z,50.875355
2023-03-25T10:32:19.782Z,50.875355
2023-03-25T10:33:19.768Z,50.875324
2023-03-25T10:34:19.788Z,50.875343
2023-03-25T10:35:19.758Z,50.875362
2023-03-25T10:36:19.735Z,50.875366
2023-03-25T10:37:19.739Z,50.875378
2023-03-25T10:38:19.725Z,50.875458
2023-03-25T10:39:19.703Z,50.875332
2023-03-25T10:40:21.522Z,50.875332
2023-03-25T11:54:18.030Z,50.876610
2023-03-25T11:55:18.986Z,50.875942
2023-03-25T11:56:17.980Z,50.875931
2023-03-25T11:57:17.989Z,50.875645
2023-03-25T11:58:17.947Z,50.875759
2023-03-25T11:59:17.976Z,50.875744
2023-03-25T12:00:17.983Z,50.875450
2023-03-25T12:01:17.933Z,50.875336
2023-03-25T12:02:17.934Z,50.875340
2023-03-25T12:03:20.070Z,50.875340
2023-03-25T12:04:18.963Z,50.875259
2023-03-25T12:05:17.895Z,50.875305
2023-03-25T12:06:17.905Z,50.875340
2023-03-25T12:07:17.937Z,50.875381
2023-03-25T12:08:17.931Z,50.875343
2023-03-25T12:09:17.922Z,50.875469
2023-03-25T12:10:17.840Z,50.875301
2023-03-25T12:11:17.862Z,50.875294
2023-03-25T12:12:17.846Z,50.875267
2023-03-25T12:13:17.847Z,50.875622
2023-03-25T12:14:17.825Z,50.875473
2023-03-25T12:15:17.818Z,50.875477
2023-03-25T12:16:17.845Z,50.875366
2023-03-25T12:17:17.787Z,50.875340
2023-03-25T12:18:17.819Z,50.875328
2023-03-25T12:19:17.792Z,50.875381
2023-03-25T12:20:17.760Z,50.875439
2023-03-25T12:21:17.746Z,50.875668
2023-03-25T12:22:17.723Z,50.875576
2023-03-25T12:23:17.722Z,50.875355
2023-03-25T12:24:17.727Z,50.875641
2023-03-25T12:25:17.691Z,50.875351
2023-03-25T12:26:17.701Z,50.875340
2023-03-25T12:27:17.697Z,50.875580
2023-03-25T12:28:17.680Z,50.875633
2023-03-25T12:29:17.677Z,50.875420
2023-03-25T12:30:17.678Z,50.875408
2023-03-25T12:31:17.772Z,50.875458
2023-03-25T12:32:17.626Z,50.874939
2023-03-25T12:33:17.597Z,50.874939
2023-03-25T12:34:17.607Z,50.874939
2023-03-25T12:35:17.620Z,50.875305
2023-03-25T12:36:17.576Z,50.875393
2023-03-25T12:37:17.572Z,50.875431
2023-03-25T12:38:17.573Z,50.875378
2023-03-25T12:39:17.562Z,50.875320
2023-03-25T12:40:17.545Z,50.875393
2023-03-25T12:41:17.526Z,50.875481
2023-03-25T12:42:17.554Z,50.875370
2023-03-25T12:43:17.505Z,50.875294
2023-03-25T12:44:17.510Z,50.875446
2023-03-25T12:45:17.954Z,50.875633
2023-03-25T12:46:17.577Z,50.875366
2023-03-25T12:47:17.488Z,50.875431
2023-03-25T12:48:17.492Z,50.875397
2023-03-25T12:49:17.544Z,50.875511
2023-03-25T12:50:17.562Z,50.875416
2023-03-25T12:51:17.449Z,50.875404
2023-03-25T12:52:18.261Z,50.875366
2023-03-25T12:53:19.377Z,50.875454
2023-03-25T12:54:17.424Z,50.875473
2023-03-25T12:55:18.433Z,50.875275
2023-03-25T12:56:17.551Z,50.875301
2023-03-25T12:57:18.464Z,50.875462
2023-03-25T12:58:17.333Z,50.875568
2023-03-25T12:59:18.357Z,50.875431
2023-03-25T13:00:18.352Z,50.875332
2023-03-25T13:01:17.486Z,50.875492
2023-03-25T13:02:17.335Z,50.875416
2023-03-25T13:03:17.385Z,50.875389
2023-03-25T13:04:17.324Z,50.875374
2023-03-25T13:05:17.305Z,50.875412
2023-03-25T13:06:17.324Z,50.875515
2023-03-25T13:07:17.374Z,50.875374
2023-03-25T13:08:17.291Z,50.875263
2023-03-25T13:09:17.258Z,50.875366
2023-03-25T13:10:17.272Z,50.875477
2023-03-25T13:11:17.249Z,50.875473
2023-03-25T13:12:17.248Z,50.875523
2023-03-25T13:13:17.234Z,50.875370
2023-03-25T13:14:17.213Z,50.875416
2023-03-25T13:15:24.606Z,50.875355
2023-03-25T13:16:19.257Z,50.875336
2023-03-25T13:17:17.214Z,50.875462
2023-03-25T13:18:17.201Z,50.875355
2023-03-25T13:19:17.182Z,50.875336
2023-03-25T13:20:17.165Z,50.875290
2023-03-25T13:21:17.156Z,50.875465
2023-03-25T13:22:17.158Z,50.875546
2023-03-25T13:23:17.152Z,50.875427
2023-03-25T13:24:17.116Z,50.875351
2023-03-25T13:25:17.127Z,50.875324
2023-03-25T13:26:17.107Z,50.875401
2023-03-25T13:27:17.088Z,50.875172
2023-03-25T13:28:17.086Z,50.874989
2023-03-25T13:29:17.049Z,50.875347
2023-03-25T13:30:17.070Z,50.875221
2023-03-25T13:31:17.044Z,50.875275
2023-03-25T13:32:18.134Z,50.875309
2023-03-25T13:33:17.036Z,50.875454
2023-03-25T13:34:17.045Z,50.875481
2023-03-25T13:35:17.026Z,50.875309
2023-03-25T13:36:16.998Z,50.875343
2023-03-25T13:37:16.997Z,50.875408
2023-03-25T13:38:16.979Z,50.875465
2023-03-25T13:39:16.975Z,50.875507
2023-03-25T13:40:16.977Z,50.875504
2023-03-25T13:41:16.958Z,50.875504
2023-03-25T13:42:16.943Z,50.875423
2023-03-25T13:43:16.953Z,50.875420
2023-03-25T13:44:16.952Z,50.874866
2023-03-25T13:45:16.941Z,50.875225
2023-03-25T13:46:16.959Z,50.875153
2023-03-25T13:47:16.897Z,50.875332
2023-03-25T13:48:16.899Z,50.875225
2023-03-25T13:49:16.965Z,50.875370
2023-03-25T13:50:16.867Z,50.875336
2023-03-25T13:51:16.849Z,50.875443
2023-03-25T13:52:16.821Z,50.875370
2023-03-25T13:53:16.827Z,50.875351
2023-03-25T13:54:16.851Z,50.875076
2023-03-25T13:55:16.828Z,50.875225
2023-03-25T13:56:16.804Z,50.875023
2023-03-25T13:57:16.864Z,50.875084
2023-03-25T13:58:16.799Z,50.875214
2023-03-25T13:59:19.125Z,50.875328
2023-03-25T14:00:16.776Z,50.875477
2023-03-25T14:01:16.802Z,50.875557
2023-03-25T14:02:16.738Z,50.875256
2023-03-25T14:03:16.743Z,50.875332
2023-03-25T14:04:16.727Z,50.875526
2023-03-25T14:05:16.773Z,50.875633
2023-03-25T14:06:16.704Z,50.875252
2023-03-25T14:07:16.720Z,50.875401
2023-03-25T14:08:16.823Z,50.875210
2023-03-25T14:09:16.661Z,50.875298
2023-03-25T14:10:16.684Z,50.875423
2023-03-25T14:11:16.635Z,50.875435
2023-03-25T14:12:16.660Z,50.875530
2023-03-25T14:13:16.642Z,50.875565
2023-03-25T14:14:16.644Z,50.875534
2023-03-25T14:15:16.642Z,50.875439
2023-03-25T14:16:16.645Z,50.875114
2023-03-25T14:17:16.606Z,50.875015
2023-03-25T14:18:16.612Z,50.875553
2023-03-25T14:19:16.596Z,50.875702
2023-03-25T14:20:16.581Z,50.875702
2023-03-25T14:21:16.593Z,50.875496
2023-03-25T14:22:16.561Z,50.875385
2023-03-25T14:23:16.544Z,50.875294
2023-03-25T14:24:16.536Z,50.875313
2023-03-25T14:25:16.543Z,50.875050
2023-03-25T14:26:16.503Z,50.875050
2023-03-25T14:27:16.547Z,50.875050
2023-03-25T14:28:16.476Z,50.875050
2023-03-25T14:29:16.492Z,50.875050
2023-03-25T14:30:16.478Z,50.875050
2023-03-25T14:31:16.494Z,50.875050
2023-03-25T14:32:16.457Z,50.875221
2023-03-25T14:33:16.423Z,50.875313
2023-03-25T14:34:16.435Z,50.875401
2023-03-25T14:35:16.600Z,50.875259
2023-03-25T14:36:16.406Z,50.875301
2023-03-25T14:37:16.420Z,50.875282
2023-03-25T14:38:16.386Z,50.875332
2023-03-25T14:39:16.395Z,50.875332
2023-03-25T14:40:16.468Z,50.875431
2023-03-25T14:41:16.372Z,50.875408
2023-03-25T14:42:16.337Z,50.875435
2023-03-25T14:43:16.329Z,50.875465
2023-03-25T14:44:16.339Z,50.874897
2023-03-25T14:45:16.340Z,50.875587
2023-03-25T14:46:16.363Z,50.876072